sensor_id;sensor_type;location;lat;lon;timestamp;temperature;humidity
18105;DHT22;9179;50.968;3.134;2023-06-22T00:01:16;19.00;99.90
18105;DHT22;9179;50.968;3.134;2023-06-22T00:03:43;19.00;99.90
18105;DHT22;9179;50.968;3.134;2023-06-22T00:06:10;18.90;99.90
18105;DHT22;9179;50.968;3.134;2023-06-22T00:08:37;18.90;99.90
18105;DHT22;9179;50.968;3.134;2023-06-22T00:11:05;18.90;99.90
18105;DHT22;9179;50.968;3.134;2023-06-22T00:13:32;18.80;99.90
18105;DHT22;9179;50.968;3.134;2023-06-22T00:15:59;18.80;99.90
18105;DHT22;9179;50.968;3.134;2023-06-22T00:18:25;18.70;99.90
18105;DHT22;9179;50.968;3.134;2023-06-22T00:20:54;18.70;99.90
18105;DHT22;9179;50.968;3.134;2023-06-22T00:23:24;18.80;99.90
18105;DHT22;9179;50.968;3.134;2023-06-22T00:25:51;18.70;99.90
18105;DHT22;9179;50.968;3.134;2023-06-22T00:28:19;18.60;99.90
18105;DHT22;9179;50.968;3.134;2023-06-22T00:30:47;18.60;99.90
18105;DHT22;9179;50.968;3.134;2023-06-22T00:33:14;18.60;99.90
18105;DHT22;9179;50.968;3.134;2023-06-22T00:35:41;18.60;99.90
18105;DHT22;9179;50.968;3.134;2023-06-22T00:38:08;18.60;99.90
18105;DHT22;9179;50.968;3.134;2023-06-22T00:40:35;18.60;99.90
18105;DHT22;9179;50.968;3.134;2023-06-22T00:43:03;18.50;99.90
18105;DHT22;9179;50.968;3.134;2023-06-22T00:45:32;18.40;99.90
18105;DHT22;9179;50.968;3.134;2023-06-22T00:47:59;18.50;99.90
18105;DHT22;9179;50.968;3.134;2023-06-22T00:50:27;18.60;99.90
18105;DHT22;9179;50.968;3.134;2023-06-22T00:53:00;18.60;99.90
18105;DHT22;9179;50.968;3.134;2023-06-22T00:55:29;18.60;99.90
18105;DHT22;9179;50.968;3.134;2023-06-22T00:57:56;18.70;99.90
18105;DHT22;9179;50.968;3.134;2023-06-22T01:00:24;18.80;99.90
18105;DHT22;9179;50.968;3.134;2023-06-22T01:02:53;18.80;99.90
18105;DHT22;9179;50.968;3.134;2023-06-22T01:05:21;18.90;99.90
18105;DHT22;9179;50.968;3.134;2023-06-22T01:08:08;18.90;99.90
18105;DHT22;9179;50.968;3.134;2023-06-22T01:10:43;19.00;99.90
18105;DHT22;9179;50.968;3.134;2023-06-22T01:13:18;19.00;99.90
18105;DHT22;9179;50.968;3.134;2023-06-22T01:15:53;18.90;99.90
18105;DHT22;9179;50.968;3.134;2023-06-22T01:18:23;19.00;99.90
18105;DHT22;9179;50.968;3.134;2023-06-22T01:20:53;19.10;99.90
18105;DHT22;9179;50.968;3.134;2023-06-22T01:23:27;19.10;99.90
18105;DHT22;9179;50.968;3.134;2023-06-22T01:26:02;19.10;99.90
18105;DHT22;9179;50.968;3.134;2023-06-22T01:28:42;19.10;99.90
18105;DHT22;9179;50.968;3.134;2023-06-22T01:31:11;19.10;99.90
18105;DHT22;9179;50.968;3.134;2023-06-22T01:33:42;19.00;99.90
18105;DHT22;9179;50.968;3.134;2023-06-22T01:36:10;18.90;99.90
18105;DHT22;9179;50.968;3.134;2023-06-22T01:38:38;18.80;99.90
18105;DHT22;9179;50.968;3.134;2023-06-22T01:41:05;18.70;99.90
18105;DHT22;9179;50.968;3.134;2023-06-22T01:43:33;18.60;99.90
18105;DHT22;9179;50.968;3.134;2023-06-22T01:46:02;18.50;99.90
18105;DHT22;9179;50.968;3.134;2023-06-22T01:48:30;18.40;99.90
18105;DHT22;9179;50.968;3.134;2023-06-22T01:50:57;18.30;99.90
18105;DHT22;9179;50.968;3.134;2023-06-22T01:53:24;18.30;99.90
18105;DHT22;9179;50.968;3.134;2023-06-22T01:55:52;18.30;99.90
18105;DHT22;9179;50.968;3.134;2023-06-22T01:58:20;18.30;99.90
18105;DHT22;9179;50.968;3.134;2023-06-22T02:00:52;18.20;99.90
18105;DHT22;9179;50.968;3.134;2023-06-22T02:03:23;18.10;99.90
18105;DHT22;9179;50.968;3.134;2023-06-22T02:05:56;18.00;99.90
18105;DHT22;9179;50.968;3.134;2023-06-22T02:08:29;18.10;99.90
18105;DHT22;9179;50.968;3.134;2023-06-22T02:10:58;18.10;99.90
18105;DHT22;9179;50.968;3.134;2023-06-22T02:13:26;18.10;99.90
18105;DHT22;9179;50.968;3.134;2023-06-22T02:15:54;18.10;99.90
18105;DHT22;9179;50.968;3.134;2023-06-22T02:18:22;18.00;99.90
18105;DHT22;9179;50.968;3.134;2023-06-22T02:20:50;17.90;99.90
18105;DHT22;9179;50.968;3.134;2023-06-22T02:23:18;17.90;99.90
18105;DHT22;9179;50.968;3.134;2023-06-22T02:25:45;17.90;99.90
18105;DHT22;9179;50.968;3.134;2023-06-22T02:28:12;17.80;99.90
18105;DHT22;9179;50.968;3.134;2023-06-22T02:30:39;17.80;99.90
18105;DHT22;9179;50.968;3.134;2023-06-22T02:33:06;17.80;99.90
18105;DHT22;9179;50.968;3.134;2023-06-22T02:35:34;17.80;99.90
18105;DHT22;9179;50.968;3.134;2023-06-22T02:38:03;17.70;99.90
18105;DHT22;9179;50.968;3.134;2023-06-22T02:40:30;17.70;99.90
18105;DHT22;9179;50.968;3.134;2023-06-22T02:42:58;17.60;99.90
18105;DHT22;9179;50.968;3.134;2023-06-22T02:45:27;17.70;99.90
18105;DHT22;9179;50.968;3.134;2023-06-22T02:47:55;17.70;99.90
18105;DHT22;9179;50.968;3.134;2023-06-22T02:50:22;17.70;99.90
18105;DHT22;9179;50.968;3.134;2023-06-22T02:52:50;17.70;99.90
18105;DHT22;9179;50.968;3.134;2023-06-22T02:55:17;17.70;99.90
18105;DHT22;9179;50.968;3.134;2023-06-22T02:57:44;17.70;99.90
18105;DHT22;9179;50.968;3.134;2023-06-22T03:00:13;17.60;99.90
18105;DHT22;9179;50.968;3.134;2023-06-22T03:02:43;17.50;99.90
18105;DHT22;9179;50.968;3.134;2023-06-22T03:05:10;17.50;99.90
18105;DHT22;9179;50.968;3.134;2023-06-22T03:07:40;17.40;99.90
18105;DHT22;9179;50.968;3.134;2023-06-22T03:10:09;17.40;99.90
18105;DHT22;9179;50.968;3.134;2023-06-22T03:12:37;17.30;99.90
18105;DHT22;9179;50.968;3.134;2023-06-22T03:15:05;17.30;99.90
18105;DHT22;9179;50.968;3.134;2023-06-22T03:17:33;17.40;99.90
18105;DHT22;9179;50.968;3.134;2023-06-22T03:20:00;17.40;99.90
18105;DHT22;9179;50.968;3.134;2023-06-22T03:22:31;17.50;99.90
18105;DHT22;9179;50.968;3.134;2023-06-22T03:24:58;17.40;99.90
18105;DHT22;9179;50.968;3.134;2023-06-22T03:27:27;17.40;99.90
18105;DHT22;9179;50.968;3.134;2023-06-22T03:29:53;17.50;99.90
18105;DHT22;9179;50.968;3.134;2023-06-22T03:32:20;17.50;99.90
18105;DHT22;9179;50.968;3.134;2023-06-22T03:34:47;17.60;99.90
18105;DHT22;9179;50.968;3.134;2023-06-22T03:37:15;17.80;99.90
18105;DHT22;9179;50.968;3.134;2023-06-22T03:39:42;17.90;99.90
18105;DHT22;9179;50.968;3.134;2023-06-22T03:42:08;18.00;99.90
18105;DHT22;9179;50.968;3.134;2023-06-22T03:44:37;18.00;99.90
18105;DHT22;9179;50.968;3.134;2023-06-22T03:47:04;18.10;99.90
18105;DHT22;9179;50.968;3.134;2023-06-22T03:49:32;18.10;99.90
18105;DHT22;9179;50.968;3.134;2023-06-22T03:52:00;18.10;99.90
18105;DHT22;9179;50.968;3.134;2023-06-22T03:54:28;18.00;99.90
18105;DHT22;9179;50.968;3.134;2023-06-22T03:56:56;18.20;99.90
18105;DHT22;9179;50.968;3.134;2023-06-22T03:59:24;18.30;99.90
18105;DHT22;9179;50.968;3.134;2023-06-22T04:01:52;18.50;99.90
18105;DHT22;9179;50.968;3.134;2023-06-22T04:04:19;18.60;99.90
18105;DHT22;9179;50.968;3.134;2023-06-22T04:06:46;18.60;99.90
18105;DHT22;9179;50.968;3.134;2023-06-22T04:09:13;18.60;99.90
18105;DHT22;9179;50.968;3.134;2023-06-22T04:11:40;18.50;99.90
18105;DHT22;9179;50.968;3.134;2023-06-22T04:14:07;18.50;99.90
18105;DHT22;9179;50.968;3.134;2023-06-22T04:16:34;18.50;99.90
18105;DHT22;9179;50.968;3.134;2023-06-22T04:19:02;18.60;99.90
18105;DHT22;9179;50.968;3.134;2023-06-22T04:21:29;18.80;99.90
18105;DHT22;9179;50.968;3.134;2023-06-22T04:23:56;19.00;99.90
18105;DHT22;9179;50.968;3.134;2023-06-22T04:26:23;19.20;99.90
18105;DHT22;9179;50.968;3.134;2023-06-22T04:28:50;19.30;99.90
18105;DHT22;9179;50.968;3.134;2023-06-22T04:31:21;19.50;99.90
18105;DHT22;9179;50.968;3.134;2023-06-22T04:33:57;19.80;99.90
18105;DHT22;9179;50.968;3.134;2023-06-22T04:36:35;20.10;99.90
18105;DHT22;9179;50.968;3.134;2023-06-22T04:39:07;20.20;99.90
18105;DHT22;9179;50.968;3.134;2023-06-22T04:41:35;20.50;99.90
18105;DHT22;9179;50.968;3.134;2023-06-22T04:44:10;20.70;99.90
18105;DHT22;9179;50.968;3.134;2023-06-22T04:46:39;20.90;99.90
18105;DHT22;9179;50.968;3.134;2023-06-22T04:49:06;21.20;99.90
18105;DHT22;9179;50.968;3.134;2023-06-22T04:51:39;21.50;99.90
18105;DHT22;9179;50.968;3.134;2023-06-22T04:54:06;21.80;99.90
18105;DHT22;9179;50.968;3.134;2023-06-22T04:56:33;22.00;99.90
18105;DHT22;9179;50.968;3.134;2023-06-22T04:59:01;22.20;99.90
18105;DHT22;9179;50.968;3.134;2023-06-22T05:01:28;22.40;99.90
18105;DHT22;9179;50.968;3.134;2023-06-22T05:03:56;22.30;99.90
18105;DHT22;9179;50.968;3.134;2023-06-22T05:06:26;22.00;99.90
18105;DHT22;9179;50.968;3.134;2023-06-22T05:08:56;21.60;99.90
18105;DHT22;9179;50.968;3.134;2023-06-22T05:11:24;21.30;99.90
18105;DHT22;9179;50.968;3.134;2023-06-22T05:13:51;21.00;99.90
18105;DHT22;9179;50.968;3.134;2023-06-22T05:16:18;20.80;99.90
18105;DHT22;9179;50.968;3.134;2023-06-22T05:18:50;20.80;99.90
18105;DHT22;9179;50.968;3.134;2023-06-22T05:21:17;20.70;99.90
18105;DHT22;9179;50.968;3.134;2023-06-22T05:23:44;20.80;99.90
18105;DHT22;9179;50.968;3.134;2023-06-22T05:26:13;21.10;99.90
18105;DHT22;9179;50.968;3.134;2023-06-22T05:28:40;21.30;99.90
18105;DHT22;9179;50.968;3.134;2023-06-22T05:31:07;21.40;99.90
18105;DHT22;9179;50.968;3.134;2023-06-22T05:33:34;21.80;99.90
18105;DHT22;9179;50.968;3.134;2023-06-22T05:36:01;22.40;99.90
18105;DHT22;9179;50.968;3.134;2023-06-22T05:38:27;22.80;99.90
18105;DHT22;9179;50.968;3.134;2023-06-22T05:40:55;23.00;99.90
18105;DHT22;9179;50.968;3.134;2023-06-22T05:43:23;23.40;99.90
18105;DHT22;9179;50.968;3.134;2023-06-22T05:45:50;23.50;99.90
18105;DHT22;9179;50.968;3.134;2023-06-22T05:48:17;23.60;99.90
18105;DHT22;9179;50.968;3.134;2023-06-22T05:50:44;23.80;99.90
18105;DHT22;9179;50.968;3.134;2023-06-22T05:53:11;23.80;99.90
18105;DHT22;9179;50.968;3.134;2023-06-22T05:55:38;23.70;99.90
18105;DHT22;9179;50.968;3.134;2023-06-22T05:58:05;23.80;99.90
18105;DHT22;9179;50.968;3.134;2023-06-22T06:00:33;23.50;99.90
18105;DHT22;9179;50.968;3.134;2023-06-22T06:03:00;23.30;99.90
18105;DHT22;9179;50.968;3.134;2023-06-22T06:05:28;23.10;99.90
18105;DHT22;9179;50.968;3.134;2023-06-22T06:07:55;23.00;99.90
18105;DHT22;9179;50.968;3.134;2023-06-22T06:10:22;22.90;99.90
18105;DHT22;9179;50.968;3.134;2023-06-22T06:12:49;22.90;99.90
18105;DHT22;9179;50.968;3.134;2023-06-22T06:15:16;22.90;99.90
18105;DHT22;9179;50.968;3.134;2023-06-22T06:17:48;23.00;99.90
18105;DHT22;9179;50.968;3.134;2023-06-22T06:20:17;23.10;99.90
18105;DHT22;9179;50.968;3.134;2023-06-22T06:22:44;23.10;99.90
18105;DHT22;9179;50.968;3.134;2023-06-22T06:25:11;23.30;99.90
18105;DHT22;9179;50.968;3.134;2023-06-22T06:27:41;23.80;99.90
18105;DHT22;9179;50.968;3.134;2023-06-22T06:30:09;24.20;99.90
18105;DHT22;9179;50.968;3.134;2023-06-22T06:32:37;24.30;99.90
18105;DHT22;9179;50.968;3.134;2023-06-22T06:35:08;24.30;99.90
18105;DHT22;9179;50.968;3.134;2023-06-22T06:37:37;24.30;99.90
18105;DHT22;9179;50.968;3.134;2023-06-22T06:40:05;24.20;99.90
18105;DHT22;9179;50.968;3.134;2023-06-22T06:42:33;24.30;99.90
18105;DHT22;9179;50.968;3.134;2023-06-22T06:45:00;24.30;99.90
18105;DHT22;9179;50.968;3.134;2023-06-22T06:47:27;24.40;99.90
18105;DHT22;9179;50.968;3.134;2023-06-22T06:49:54;24.50;99.90
18105;DHT22;9179;50.968;3.134;2023-06-22T06:52:22;24.60;99.90
18105;DHT22;9179;50.968;3.134;2023-06-22T06:54:49;24.70;99.90
18105;DHT22;9179;50.968;3.134;2023-06-22T06:57:17;24.90;99.90
18105;DHT22;9179;50.968;3.134;2023-06-22T06:59:45;25.10;99.90
18105;DHT22;9179;50.968;3.134;2023-06-22T07:02:12;25.30;99.90
18105;DHT22;9179;50.968;3.134;2023-06-22T07:04:40;25.40;99.90
18105;DHT22;9179;50.968;3.134;2023-06-22T07:07:07;25.60;99.90
18105;DHT22;9179;50.968;3.134;2023-06-22T07:09:35;25.80;99.90
18105;DHT22;9179;50.968;3.134;2023-06-22T07:12:03;26.20;99.90
18105;DHT22;9179;50.968;3.134;2023-06-22T07:14:30;26.50;99.90
18105;DHT22;9179;50.968;3.134;2023-06-22T07:16:57;26.60;99.90
18105;DHT22;9179;50.968;3.134;2023-06-22T07:19:25;26.80;99.90
18105;DHT22;9179;50.968;3.134;2023-06-22T07:21:52;26.90;99.90
18105;DHT22;9179;50.968;3.134;2023-06-22T07:24:19;26.90;99.90
18105;DHT22;9179;50.968;3.134;2023-06-22T07:26:48;26.90;99.90
18105;DHT22;9179;50.968;3.134;2023-06-22T07:29:16;26.90;99.90
18105;DHT22;9179;50.968;3.134;2023-06-22T07:31:44;27.00;99.90
18105;DHT22;9179;50.968;3.134;2023-06-22T07:34:11;26.50;99.90
18105;DHT22;9179;50.968;3.134;2023-06-22T07:36:38;26.30;99.90
18105;DHT22;9179;50.968;3.134;2023-06-22T07:39:06;26.00;99.90
18105;DHT22;9179;50.968;3.134;2023-06-22T07:41:33;26.00;99.90
18105;DHT22;9179;50.968;3.134;2023-06-22T07:44:01;26.00;99.90
18105;DHT22;9179;50.968;3.134;2023-06-22T07:46:28;26.00;99.90
18105;DHT22;9179;50.968;3.134;2023-06-22T07:48:56;25.90;99.90
18105;DHT22;9179;50.968;3.134;2023-06-22T07:51:25;25.90;99.90
18105;DHT22;9179;50.968;3.134;2023-06-22T07:53:52;25.90;99.90
18105;DHT22;9179;50.968;3.134;2023-06-22T07:56:19;26.00;99.90
18105;DHT22;9179;50.968;3.134;2023-06-22T07:58:46;25.90;99.90
18105;DHT22;9179;50.968;3.134;2023-06-22T08:01:15;25.90;99.90
18105;DHT22;9179;50.968;3.134;2023-06-22T08:03:42;25.90;99.90
18105;DHT22;9179;50.968;3.134;2023-06-22T08:06:09;26.00;99.90
18105;DHT22;9179;50.968;3.134;2023-06-22T08:08:37;26.10;99.90
18105;DHT22;9179;50.968;3.134;2023-06-22T08:11:04;25.90;99.90
18105;DHT22;9179;50.968;3.134;2023-06-22T08:13:31;25.90;99.90
18105;DHT22;9179;50.968;3.134;2023-06-22T08:15:58;25.60;99.90
18105;DHT22;9179;50.968;3.134;2023-06-22T08:18:26;25.60;99.90
18105;DHT22;9179;50.968;3.134;2023-06-22T08:20:53;25.80;99.90
18105;DHT22;9179;50.968;3.134;2023-06-22T08:23:20;26.00;99.90
18105;DHT22;9179;50.968;3.134;2023-06-22T08:25:47;26.20;99.90
18105;DHT22;9179;50.968;3.134;2023-06-22T08:28:16;26.60;99.90
18105;DHT22;9179;50.968;3.134;2023-06-22T08:30:43;26.60;99.90
18105;DHT22;9179;50.968;3.134;2023-06-22T08:33:09;26.70;99.90
18105;DHT22;9179;50.968;3.134;2023-06-22T08:35:38;26.80;99.90
18105;DHT22;9179;50.968;3.134;2023-06-22T08:38:05;26.70;99.90
18105;DHT22;9179;50.968;3.134;2023-06-22T08:40:32;26.60;99.90
18105;DHT22;9179;50.968;3.134;2023-06-22T08:42:59;26.80;99.90
18105;DHT22;9179;50.968;3.134;2023-06-22T08:45:26;27.10;99.90
18105;DHT22;9179;50.968;3.134;2023-06-22T08:47:53;27.20;99.90
18105;DHT22;9179;50.968;3.134;2023-06-22T08:50:19;27.00;99.90
18105;DHT22;9179;50.968;3.134;2023-06-22T08:52:48;26.70;99.90
18105;DHT22;9179;50.968;3.134;2023-06-22T08:55:15;26.80;99.90
18105;DHT22;9179;50.968;3.134;2023-06-22T08:57:42;26.70;99.90
18105;DHT22;9179;50.968;3.134;2023-06-22T09:00:10;26.50;99.90
18105;DHT22;9179;50.968;3.134;2023-06-22T09:02:45;26.30;99.90
18105;DHT22;9179;50.968;3.134;2023-06-22T09:05:13;26.50;99.90
18105;DHT22;9179;50.968;3.134;2023-06-22T09:07:40;26.20;99.90
18105;DHT22;9179;50.968;3.134;2023-06-22T09:10:09;26.30;99.90
18105;DHT22;9179;50.968;3.134;2023-06-22T09:12:37;26.30;99.90
18105;DHT22;9179;50.968;3.134;2023-06-22T09:15:05;26.20;99.90
18105;DHT22;9179;50.968;3.134;2023-06-22T09:17:33;26.20;99.90
18105;DHT22;9179;50.968;3.134;2023-06-22T09:20:01;26.20;99.90
18105;DHT22;9179;50.968;3.134;2023-06-22T09:22:31;26.40;99.90
18105;DHT22;9179;50.968;3.134;2023-06-22T09:24:58;26.20;99.90
18105;DHT22;9179;50.968;3.134;2023-06-22T09:27:26;26.20;99.90
18105;DHT22;9179;50.968;3.134;2023-06-22T09:29:53;26.10;99.90
18105;DHT22;9179;50.968;3.134;2023-06-22T09:32:20;26.10;99.90
18105;DHT22;9179;50.968;3.134;2023-06-22T09:34:47;26.10;99.90
18105;DHT22;9179;50.968;3.134;2023-06-22T09:37:14;26.30;99.90
18105;DHT22;9179;50.968;3.134;2023-06-22T09:39:41;26.50;99.90
18105;DHT22;9179;50.968;3.134;2023-06-22T09:42:08;26.80;99.90
18105;DHT22;9179;50.968;3.134;2023-06-22T09:44:36;26.50;99.90
18105;DHT22;9179;50.968;3.134;2023-06-22T09:47:04;26.40;99.90
18105;DHT22;9179;50.968;3.134;2023-06-22T09:49:31;26.50;99.90
18105;DHT22;9179;50.968;3.134;2023-06-22T09:51:59;26.50;99.90
18105;DHT22;9179;50.968;3.134;2023-06-22T09:54:26;26.50;99.90
18105;DHT22;9179;50.968;3.134;2023-06-22T09:56:53;26.60;99.90
18105;DHT22;9179;50.968;3.134;2023-06-22T09:59:20;26.50;99.90
18105;DHT22;9179;50.968;3.134;2023-06-22T10:01:48;26.40;99.90
18105;DHT22;9179;50.968;3.134;2023-06-22T10:04:15;26.40;99.90
18105;DHT22;9179;50.968;3.134;2023-06-22T10:06:42;26.40;99.90
18105;DHT22;9179;50.968;3.134;2023-06-22T10:09:09;26.50;99.90
18105;DHT22;9179;50.968;3.134;2023-06-22T10:11:36;26.50;99.90
18105;DHT22;9179;50.968;3.134;2023-06-22T10:14:03;26.50;99.90
18105;DHT22;9179;50.968;3.134;2023-06-22T10:16:31;26.50;99.90
18105;DHT22;9179;50.968;3.134;2023-06-22T10:18:59;26.40;99.90
18105;DHT22;9179;50.968;3.134;2023-06-22T10:21:26;26.40;99.90
18105;DHT22;9179;50.968;3.134;2023-06-22T10:23:54;26.30;99.90
18105;DHT22;9179;50.968;3.134;2023-06-22T10:26:21;26.10;99.90
18105;DHT22;9179;50.968;3.134;2023-06-22T10:28:48;26.10;99.90
18105;DHT22;9179;50.968;3.134;2023-06-22T10:31:14;26.00;99.90
18105;DHT22;9179;50.968;3.134;2023-06-22T10:33:42;26.00;99.90
18105;DHT22;9179;50.968;3.134;2023-06-22T10:36:11;26.00;99.90
18105;DHT22;9179;50.968;3.134;2023-06-22T10:38:38;26.10;99.90
18105;DHT22;9179;50.968;3.134;2023-06-22T10:41:05;26.10;99.90
18105;DHT22;9179;50.968;3.134;2023-06-22T10:43:32;25.90;99.90
18105;DHT22;9179;50.968;3.134;2023-06-22T10:45:59;25.60;99.90
18105;DHT22;9179;50.968;3.134;2023-06-22T10:48:26;25.40;99.90
18105;DHT22;9179;50.968;3.134;2023-06-22T10:50:53;25.30;99.90
18105;DHT22;9179;50.968;3.134;2023-06-22T10:53:21;25.20;99.90
18105;DHT22;9179;50.968;3.134;2023-06-22T10:55:48;25.30;99.90
18105;DHT22;9179;50.968;3.134;2023-06-22T10:58:17;25.30;99.90
18105;DHT22;9179;50.968;3.134;2023-06-22T11:00:47;25.30;99.90
18105;DHT22;9179;50.968;3.134;2023-06-22T11:03:14;25.30;99.90
18105;DHT22;9179;50.968;3.134;2023-06-22T11:05:41;25.40;99.90
18105;DHT22;9179;50.968;3.134;2023-06-22T11:08:08;25.40;99.90
18105;DHT22;9179;50.968;3.134;2023-06-22T11:10:36;25.30;99.90
18105;DHT22;9179;50.968;3.134;2023-06-22T11:13:03;25.40;99.90
18105;DHT22;9179;50.968;3.134;2023-06-22T11:15:31;25.40;99.90
18105;DHT22;9179;50.968;3.134;2023-06-22T11:17:58;25.40;99.90
18105;DHT22;9179;50.968;3.134;2023-06-22T11:20:25;25.40;99.90
18105;DHT22;9179;50.968;3.134;2023-06-22T11:22:52;25.40;99.90
18105;DHT22;9179;50.968;3.134;2023-06-22T11:25:18;25.40;99.90
18105;DHT22;9179;50.968;3.134;2023-06-22T11:27:47;25.30;99.90
18105;DHT22;9179;50.968;3.134;2023-06-22T11:30:14;25.40;99.90
18105;DHT22;9179;50.968;3.134;2023-06-22T11:32:42;25.50;99.90
18105;DHT22;9179;50.968;3.134;2023-06-22T11:35:08;25.50;99.90
18105;DHT22;9179;50.968;3.134;2023-06-22T11:37:35;25.30;99.90
18105;DHT22;9179;50.968;3.134;2023-06-22T11:40:03;25.20;99.90
18105;DHT22;9179;50.968;3.134;2023-06-22T11:42:34;25.10;99.90
18105;DHT22;9179;50.968;3.134;2023-06-22T11:45:04;25.10;99.90
18105;DHT22;9179;50.968;3.134;2023-06-22T11:47:31;25.10;99.90
18105;DHT22;9179;50.968;3.134;2023-06-22T11:49:58;25.10;99.90
18105;DHT22;9179;50.968;3.134;2023-06-22T11:52:25;25.10;99.90
18105;DHT22;9179;50.968;3.134;2023-06-22T11:54:53;25.10;99.90
18105;DHT22;9179;50.968;3.134;2023-06-22T11:57:19;25.20;99.90
18105;DHT22;9179;50.968;3.134;2023-06-22T11:59:46;25.30;99.90
18105;DHT22;9179;50.968;3.134;2023-06-22T12:02:15;25.40;99.90
18105;DHT22;9179;50.968;3.134;2023-06-22T12:04:42;25.40;99.90
18105;DHT22;9179;50.968;3.134;2023-06-22T12:07:09;25.30;99.90
18105;DHT22;9179;50.968;3.134;2023-06-22T12:09:35;25.20;99.90
18105;DHT22;9179;50.968;3.134;2023-06-22T12:12:03;25.30;99.90
18105;DHT22;9179;50.968;3.134;2023-06-22T12:14:30;25.40;99.90
18105;DHT22;9179;50.968;3.134;2023-06-22T12:16:57;25.40;99.90
18105;DHT22;9179;50.968;3.134;2023-06-22T12:19:25;25.60;99.90
18105;DHT22;9179;50.968;3.134;2023-06-22T12:21:52;25.60;99.90
18105;DHT22;9179;50.968;3.134;2023-06-22T12:24:19;25.50;99.90
18105;DHT22;9179;50.968;3.134;2023-06-22T12:26:46;25.50;99.90
18105;DHT22;9179;50.968;3.134;2023-06-22T12:29:13;25.50;99.90
18105;DHT22;9179;50.968;3.134;2023-06-22T12:31:40;25.50;99.90
18105;DHT22;9179;50.968;3.134;2023-06-22T12:34:07;25.60;99.90
18105;DHT22;9179;50.968;3.134;2023-06-22T12:36:35;25.70;99.90
18105;DHT22;9179;50.968;3.134;2023-06-22T12:39:02;25.90;99.90
18105;DHT22;9179;50.968;3.134;2023-06-22T12:41:29;26.00;99.90
18105;DHT22;9179;50.968;3.134;2023-06-22T12:43:56;26.00;99.90
18105;DHT22;9179;50.968;3.134;2023-06-22T12:46:23;26.00;99.90
18105;DHT22;9179;50.968;3.134;2023-06-22T12:48:50;26.10;99.90
18105;DHT22;9179;50.968;3.134;2023-06-22T12:51:20;26.30;99.90
18105;DHT22;9179;50.968;3.134;2023-06-22T12:53:49;26.30;99.90
18105;DHT22;9179;50.968;3.134;2023-06-22T12:56:16;26.30;99.90
18105;DHT22;9179;50.968;3.134;2023-06-22T12:58:43;26.20;99.90
18105;DHT22;9179;50.968;3.134;2023-06-22T13:01:10;26.30;99.90
18105;DHT22;9179;50.968;3.134;2023-06-22T13:03:37;26.20;99.90
18105;DHT22;9179;50.968;3.134;2023-06-22T13:06:04;26.20;99.90
18105;DHT22;9179;50.968;3.134;2023-06-22T13:08:31;26.10;99.90
18105;DHT22;9179;50.968;3.134;2023-06-22T13:11:00;26.20;99.90
18105;DHT22;9179;50.968;3.134;2023-06-22T13:13:26;26.10;99.90
18105;DHT22;9179;50.968;3.134;2023-06-22T13:15:53;26.20;99.90
18105;DHT22;9179;50.968;3.134;2023-06-22T13:18:20;26.40;99.90
18105;DHT22;9179;50.968;3.134;2023-06-22T13:20:47;26.60;99.90
18105;DHT22;9179;50.968;3.134;2023-06-22T13:23:14;26.60;99.90
18105;DHT22;9179;50.968;3.134;2023-06-22T13:25:41;26.40;99.90
18105;DHT22;9179;50.968;3.134;2023-06-22T13:28:09;26.20;99.90
18105;DHT22;9179;50.968;3.134;2023-06-22T13:30:39;26.00;99.90
18105;DHT22;9179;50.968;3.134;2023-06-22T13:33:06;26.20;99.90
18105;DHT22;9179;50.968;3.134;2023-06-22T13:35:33;26.60;99.90
18105;DHT22;9179;50.968;3.134;2023-06-22T13:38:00;26.70;99.90
18105;DHT22;9179;50.968;3.134;2023-06-22T13:40:27;26.60;99.90
18105;DHT22;9179;50.968;3.134;2023-06-22T13:42:57;26.70;99.90
18105;DHT22;9179;50.968;3.134;2023-06-22T13:45:27;27.00;99.90
18105;DHT22;9179;50.968;3.134;2023-06-22T13:47:54;27.10;99.90
18105;DHT22;9179;50.968;3.134;2023-06-22T13:50:21;27.20;99.90
18105;DHT22;9179;50.968;3.134;2023-06-22T13:52:48;27.10;99.90
18105;DHT22;9179;50.968;3.134;2023-06-22T13:55:15;27.30;99.90
18105;DHT22;9179;50.968;3.134;2023-06-22T13:57:43;27.60;99.90
18105;DHT22;9179;50.968;3.134;2023-06-22T14:00:10;28.30;99.90
18105;DHT22;9179;50.968;3.134;2023-06-22T14:02:39;28.10;99.90
18105;DHT22;9179;50.968;3.134;2023-06-22T14:05:07;27.90;99.90
18105;DHT22;9179;50.968;3.134;2023-06-22T14:07:35;27.80;99.90
18105;DHT22;9179;50.968;3.134;2023-06-22T14:10:03;28.00;99.90
18105;DHT22;9179;50.968;3.134;2023-06-22T14:12:30;28.40;99.90
18105;DHT22;9179;50.968;3.134;2023-06-22T14:14:57;28.10;99.90
18105;DHT22;9179;50.968;3.134;2023-06-22T14:17:24;27.60;99.90
18105;DHT22;9179;50.968;3.134;2023-06-22T14:19:53;27.60;99.90
18105;DHT22;9179;50.968;3.134;2023-06-22T14:22:20;27.90;99.90
18105;DHT22;9179;50.968;3.134;2023-06-22T14:24:48;28.10;99.90
18105;DHT22;9179;50.968;3.134;2023-06-22T14:27:15;27.90;99.60
18105;DHT22;9179;50.968;3.134;2023-06-22T14:29:42;28.40;99.90
18105;DHT22;9179;50.968;3.134;2023-06-22T14:32:09;29.30;99.50
18105;DHT22;9179;50.968;3.134;2023-06-22T14:34:36;29.40;98.30
18105;DHT22;9179;50.968;3.134;2023-06-22T14:37:07;29.10;97.70
18105;DHT22;9179;50.968;3.134;2023-06-22T14:39:35;28.60;97.10
18105;DHT22;9179;50.968;3.134;2023-06-22T14:42:02;27.90;96.80
18105;DHT22;9179;50.968;3.134;2023-06-22T14:44:30;27.90;97.70
18105;DHT22;9179;50.968;3.134;2023-06-22T14:46:57;28.10;97.30
18105;DHT22;9179;50.968;3.134;2023-06-22T14:49:25;28.50;97.10
18105;DHT22;9179;50.968;3.134;2023-06-22T14:51:52;28.50;96.70
18105;DHT22;9179;50.968;3.134;2023-06-22T14:54:21;28.30;96.70
18105;DHT22;9179;50.968;3.134;2023-06-22T14:56:48;28.30;96.80
18105;DHT22;9179;50.968;3.134;2023-06-22T14:59:15;28.60;96.70
18105;DHT22;9179;50.968;3.134;2023-06-22T15:01:42;28.30;96.10
18105;DHT22;9179;50.968;3.134;2023-06-22T15:04:09;27.60;97.00
18105;DHT22;9179;50.968;3.134;2023-06-22T15:06:35;27.30;98.00
18105;DHT22;9179;50.968;3.134;2023-06-22T15:09:03;27.30;98.30
18105;DHT22;9179;50.968;3.134;2023-06-22T15:11:31;27.60;98.30
18105;DHT22;9179;50.968;3.134;2023-06-22T15:13:59;27.30;98.40
18105;DHT22;9179;50.968;3.134;2023-06-22T15:16:26;27.10;98.80
18105;DHT22;9179;50.968;3.134;2023-06-22T15:18:53;27.10;98.80
18105;DHT22;9179;50.968;3.134;2023-06-22T15:21:20;27.20;98.70
18105;DHT22;9179;50.968;3.134;2023-06-22T15:23:47;27.40;97.80
18105;DHT22;9179;50.968;3.134;2023-06-22T15:26:14;27.30;97.80
18105;DHT22;9179;50.968;3.134;2023-06-22T15:28:43;27.80;98.40
18105;DHT22;9179;50.968;3.134;2023-06-22T15:31:09;27.60;97.10
18105;DHT22;9179;50.968;3.134;2023-06-22T15:33:36;27.70;97.00
18105;DHT22;9179;50.968;3.134;2023-06-22T15:36:04;27.50;96.60
18105;DHT22;9179;50.968;3.134;2023-06-22T15:38:32;27.30;96.40
18105;DHT22;9179;50.968;3.134;2023-06-22T15:40:59;27.00;96.30
18105;DHT22;9179;50.968;3.134;2023-06-22T15:43:26;26.80;96.60
18105;DHT22;9179;50.968;3.134;2023-06-22T15:45:54;27.00;96.70
18105;DHT22;9179;50.968;3.134;2023-06-22T15:48:21;26.80;96.40